sensor_id;sensor_type;location;lat;lon;timestamp;P1;durP1;ratioP1;P2;durP2;ratioP2
16906;SDS011;8570;52.380;4.654;2023-02-28T00:04:22;9.47;;;4.30;;
16906;SDS011;8570;52.380;4.654;2023-02-28T00:09:24;8.70;;;3.87;;
16906;SDS011;8570;52.380;4.654;2023-02-28T00:14:26;8.67;;;4.10;;
16906;SDS011;8570;52.380;4.654;2023-02-28T00:19:29;8.17;;;3.70;;
16906;SDS011;8570;52.380;4.654;2023-02-28T00:24:31;5.60;;;2.83;;
16906;SDS011;8570;52.380;4.654;2023-02-28T00:29:33;6.23;;;2.77;;
16906;SDS011;8570;52.380;4.654;2023-02-28T00:34:36;10.07;;;5.27;;
16906;SDS011;8570;52.380;4.654;2023-02-28T00:39:38;8.10;;;3.40;;
16906;SDS011;8570;52.380;4.654;2023-02-28T00:44:41;3.67;;;2.50;;
16906;SDS011;8570;52.380;4.654;2023-02-28T00:49:44;5.83;;;2.63;;
16906;SDS011;8570;52.380;4.654;2023-02-28T00:54:46;10.30;;;2.93;;
16906;SDS011;8570;52.380;4.654;2023-02-28T00:59:48;5.27;;;2.70;;
16906;SDS011;8570;52.380;4.654;2023-02-28T01:04:51;10.10;;;4.30;;
16906;SDS011;8570;52.380;4.654;2023-02-28T01:09:53;10.50;;;3.43;;
16906;SDS011;8570;52.380;4.654;2023-02-28T01:14:55;8.83;;;3.73;;
16906;SDS011;8570;52.380;4.654;2023-02-28T01:19:59;9.97;;;4.20;;
16906;SDS011;8570;52.380;4.654;2023-02-28T01:25:01;13.20;;;4.97;;
16906;SDS011;8570;52.380;4.654;2023-02-28T01:30:03;14.00;;;3.47;;
16906;SDS011;8570;52.380;4.654;2023-02-28T01:35:07;12.73;;;4.60;;
16906;SDS011;8570;52.380;4.654;2023-02-28T01:40:10;10.67;;;3.40;;
16906;SDS011;8570;52.380;4.654;2023-02-28T01:45:18;5.60;;;2.87;;
16906;SDS011;8570;52.380;4.654;2023-02-28T01:50:25;6.83;;;2.73;;
16906;SDS011;8570;52.380;4.654;2023-02-28T01:55:29;7.90;;;3.27;;
16906;SDS011;8570;52.380;4.654;2023-02-28T02:00:31;9.83;;;3.10;;
16906;SDS011;8570;52.380;4.654;2023-02-28T02:05:36;8.60;;;2.90;;
16906;SDS011;8570;52.380;4.654;2023-02-28T02:10:39;10.07;;;3.30;;
16906;SDS011;8570;52.380;4.654;2023-02-28T02:15:44;6.30;;;2.80;;
16906;SDS011;8570;52.380;4.654;2023-02-28T02:21:03;11.63;;;3.17;;
16906;SDS011;8570;52.380;4.654;2023-02-28T02:26:25;5.97;;;2.50;;
16906;SDS011;8570;52.380;4.654;2023-02-28T02:31:48;5.87;;;2.67;;
16906;SDS011;8570;52.380;4.654;2023-02-28T02:37:07;7.63;;;3.27;;
16906;SDS011;8570;52.380;4.654;2023-02-28T02:42:16;16.23;;;6.00;;
16906;SDS011;8570;52.380;4.654;2023-02-28T02:47:25;12.93;;;4.00;;
16906;SDS011;8570;52.380;4.654;2023-02-28T02:52:32;11.70;;;3.53;;
16906;SDS011;8570;52.380;4.654;2023-02-28T02:57:41;13.10;;;3.77;;
16906;SDS011;8570;52.380;4.654;2023-02-28T03:02:47;13.80;;;4.83;;
16906;SDS011;8570;52.380;4.654;2023-02-28T03:07:51;11.97;;;5.00;;
16906;SDS011;8570;52.380;4.654;2023-02-28T03:12:55;8.40;;;3.67;;
16906;SDS011;8570;52.380;4.654;2023-02-28T03:18:16;7.10;;;3.60;;
16906;SDS011;8570;52.380;4.654;2023-02-28T03:23:28;9.03;;;4.73;;
16906;SDS011;8570;52.380;4.654;2023-02-28T03:28:38;13.53;;;4.40;;
16906;SDS011;8570;52.380;4.654;2023-02-28T03:33:46;10.23;;;4.73;;
16906;SDS011;8570;52.380;4.654;2023-02-28T03:38:57;13.10;;;5.33;;
16906;SDS011;8570;52.380;4.654;2023-02-28T03:44:03;13.50;;;4.53;;
16906;SDS011;8570;52.380;4.654;2023-02-28T03:49:09;11.87;;;3.73;;
16906;SDS011;8570;52.380;4.654;2023-02-28T03:54:19;7.77;;;3.17;;
16906;SDS011;8570;52.380;4.654;2023-02-28T03:59:25;8.37;;;3.87;;
16906;SDS011;8570;52.380;4.654;2023-02-28T04:04:30;9.10;;;3.70;;
16906;SDS011;8570;52.380;4.654;2023-02-28T04:09:33;8.13;;;3.47;;
16906;SDS011;8570;52.380;4.654;2023-02-28T04:14:35;7.80;;;3.73;;
16906;SDS011;8570;52.380;4.654;2023-02-28T04:19:37;7.07;;;4.17;;
16906;SDS011;8570;52.380;4.654;2023-02-28T04:24:41;9.40;;;4.13;;
16906;SDS011;8570;52.380;4.654;2023-02-28T04:29:42;6.97;;;3.83;;
16906;SDS011;8570;52.380;4.654;2023-02-28T04:34:45;8.83;;;3.93;;
16906;SDS011;8570;52.380;4.654;2023-02-28T04:39:48;15.67;;;4.37;;
16906;SDS011;8570;52.380;4.654;2023-02-28T04:44:50;7.77;;;4.10;;
16906;SDS011;8570;52.380;4.654;2023-02-28T04:49:51;10.23;;;4.17;;
16906;SDS011;8570;52.380;4.654;2023-02-28T04:54:55;8.80;;;4.90;;
16906;SDS011;8570;52.380;4.654;2023-02-28T04:59:56;9.47;;;4.73;;
16906;SDS011;8570;52.380;4.654;2023-02-28T05:04:58;8.60;;;4.70;;
16906;SDS011;8570;52.380;4.654;2023-02-28T05:10:02;7.97;;;4.30;;
16906;SDS011;8570;52.380;4.654;2023-02-28T05:15:04;7.27;;;4.50;;
16906;SDS011;8570;52.380;4.654;2023-02-28T05:20:07;12.97;;;5.97;;
16906;SDS011;8570;52.380;4.654;2023-02-28T05:25:12;14.33;;;6.17;;
16906;SDS011;8570;52.380;4.654;2023-02-28T05:30:20;11.47;;;5.07;;
16906;SDS011;8570;52.380;4.654;2023-02-28T05:35:22;9.47;;;5.07;;
16906;SDS011;8570;52.380;4.654;2023-02-28T05:40:25;9.40;;;5.27;;
16906;SDS011;8570;52.380;4.654;2023-02-28T05:45:27;8.20;;;4.87;;
16906;SDS011;8570;52.380;4.654;2023-02-28T05:50:29;13.70;;;4.70;;
16906;SDS011;8570;52.380;4.654;2023-02-28T05:55:32;11.80;;;4.70;;
16906;SDS011;8570;52.380;4.654;2023-02-28T06:00:35;10.17;;;5.70;;
16906;SDS011;8570;52.380;4.654;2023-02-28T06:05:37;14.70;;;5.40;;
16906;SDS011;8570;52.380;4.654;2023-02-28T06:10:40;9.17;;;4.80;;
16906;SDS011;8570;52.380;4.654;2023-02-28T06:15:43;8.77;;;4.60;;
16906;SDS011;8570;52.380;4.654;2023-02-28T06:20:44;7.50;;;5.00;;
16906;SDS011;8570;52.380;4.654;2023-02-28T06:25:55;6.77;;;4.77;;
16906;SDS011;8570;52.380;4.654;2023-02-28T06:30:58;10.80;;;5.37;;
16906;SDS011;8570;52.380;4.654;2023-02-28T06:36:00;7.60;;;5.37;;
16906;SDS011;8570;52.380;4.654;2023-02-28T06:41:04;7.83;;;5.33;;
16906;SDS011;8570;52.380;4.654;2023-02-28T06:46:07;9.50;;;6.27;;
16906;SDS011;8570;52.380;4.654;2023-02-28T06:51:12;9.50;;;6.17;;
16906;SDS011;8570;52.380;4.654;2023-02-28T06:56:18;12.87;;;6.83;;
16906;SDS011;8570;52.380;4.654;2023-02-28T07:01:21;10.80;;;7.50;;
16906;SDS011;8570;52.380;4.654;2023-02-28T07:06:24;8.83;;;7.00;;
16906;SDS011;8570;52.380;4.654;2023-02-28T07:11:27;10.93;;;8.17;;
16906;SDS011;8570;52.380;4.654;2023-02-28T07:16:29;14.30;;;8.57;;
16906;SDS011;8570;52.380;4.654;2023-02-28T07:21:31;11.80;;;8.73;;
16906;SDS011;8570;52.380;4.654;2023-02-28T07:26:34;10.43;;;8.40;;
16906;SDS011;8570;52.380;4.654;2023-02-28T07:31:36;16.43;;;11.17;;
16906;SDS011;8570;52.380;4.654;2023-02-28T07:36:38;15.53;;;11.93;;
16906;SDS011;8570;52.380;4.654;2023-02-28T07:41:41;13.40;;;9.40;;
16906;SDS011;8570;52.380;4.654;2023-02-28T07:46:44;10.87;;;8.47;;
16906;SDS011;8570;52.380;4.654;2023-02-28T07:51:46;11.17;;;8.23;;
16906;SDS011;8570;52.380;4.654;2023-02-28T07:56:49;12.20;;;8.23;;
16906;SDS011;8570;52.380;4.654;2023-02-28T08:01:51;9.70;;;7.77;;
16906;SDS011;8570;52.380;4.654;2023-02-28T08:06:52;8.13;;;6.10;;
16906;SDS011;8570;52.380;4.654;2023-02-28T08:11:57;7.73;;;5.53;;
16906;SDS011;8570;52.380;4.654;2023-02-28T08:16:59;7.03;;;5.40;;
16906;SDS011;8570;52.380;4.654;2023-02-28T08:22:02;5.83;;;5.00;;
16906;SDS011;8570;52.380;4.654;2023-02-28T08:27:05;9.50;;;6.00;;
16906;SDS011;8570;52.380;4.654;2023-02-28T08:32:07;7.03;;;5.23;;
16906;SDS011;8570;52.380;4.654;2023-02-28T08:37:09;8.57;;;5.50;;
16906;SDS011;8570;52.380;4.654;2023-02-28T08:42:12;12.77;;;5.97;;
16906;SDS011;8570;52.380;4.654;2023-02-28T08:47:14;8.30;;;5.70;;
16906;SDS011;8570;52.380;4.654;2023-02-28T08:52:17;7.23;;;5.30;;
16906;SDS011;8570;52.380;4.654;2023-02-28T08:57:20;7.73;;;5.53;;
16906;SDS011;8570;52.380;4.654;2023-02-28T09:02:22;22.57;;;11.27;;
16906;SDS011;8570;52.380;4.654;2023-02-28T09:07:23;22.97;;;10.27;;
16906;SDS011;8570;52.380;4.654;2023-02-28T09:12:27;23.13;;;11.60;;
16906;SDS011;8570;52.380;4.654;2023-02-28T09:17:32;13.90;;;8.33;;
16906;SDS011;8570;52.380;4.654;2023-02-28T09:22:34;11.00;;;7.70;;
16906;SDS011;8570;52.380;4.654;2023-02-28T09:27:37;11.33;;;8.47;;
16906;SDS011;8570;52.380;4.654;2023-02-28T09:32:39;11.53;;;8.77;;
16906;SDS011;8570;52.380;4.654;2023-02-28T09:37:41;12.27;;;8.83;;
16906;SDS011;8570;52.380;4.654;2023-02-28T09:42:46;13.00;;;8.83;;
16906;SDS011;8570;52.380;4.654;2023-02-28T09:47:49;15.73;;;10.10;;
16906;SDS011;8570;52.380;4.654;2023-02-28T09:52:54;13.73;;;10.80;;
16906;SDS011;8570;52.380;4.654;2023-02-28T09:57:58;14.20;;;10.77;;
16906;SDS011;8570;52.380;4.654;2023-02-28T10:03:06;11.97;;;10.10;;
16906;SDS011;8570;52.380;4.654;2023-02-28T10:08:21;11.23;;;8.67;;
16906;SDS011;8570;52.380;4.654;2023-02-28T10:13:31;12.80;;;9.60;;
16906;SDS011;8570;52.380;4.654;2023-02-28T10:18:39;10.73;;;7.63;;
16906;SDS011;8570;52.380;4.654;2023-02-28T10:23:44;12.97;;;9.07;;
16906;SDS011;8570;52.380;4.654;2023-02-28T10:28:49;27.03;;;9.63;;
16906;SDS011;8570;52.380;4.654;2023-02-28T10:33:53;13.33;;;8.37;;
16906;SDS011;8570;52.380;4.654;2023-02-28T10:38:56;11.20;;;7.40;;
16906;SDS011;8570;52.380;4.654;2023-02-28T10:44:13;7.50;;;6.10;;
16906;SDS011;8570;52.380;4.654;2023-02-28T10:49:21;7.37;;;4.97;;
16906;SDS011;8570;52.380;4.654;2023-02-28T10:54:27;7.93;;;5.03;;
16906;SDS011;8570;52.380;4.654;2023-02-28T10:59:32;13.20;;;5.83;;
16906;SDS011;8570;52.380;4.654;2023-02-28T11:04:35;11.13;;;5.87;;
16906;SDS011;8570;52.380;4.654;2023-02-28T11:09:40;5.97;;;3.87;;
16906;SDS011;8570;52.380;4.654;2023-02-28T11:14:49;6.70;;;4.60;;
16906;SDS011;8570;52.380;4.654;2023-02-28T11:19:53;6.53;;;4.70;;
16906;SDS011;8570;52.380;4.654;2023-02-28T11:24:59;5.40;;;3.93;;
16906;SDS011;8570;52.380;4.654;2023-02-28T11:30:04;9.20;;;4.93;;
16906;SDS011;8570;52.380;4.654;2023-02-28T11:35:26;3.87;;;3.03;;
16906;SDS011;8570;52.380;4.654;2023-02-28T11:45:59;4.50;;;3.20;;
16906;SDS011;8570;52.380;4.654;2023-02-28T11:51:17;3.30;;;2.70;;
16906;SDS011;8570;52.380;4.654;2023-02-28T11:56:23;3.73;;;2.40;;
16906;SDS011;8570;52.380;4.654;2023-02-28T12:01:35;8.40;;;2.37;;
16906;SDS011;8570;52.380;4.654;2023-02-28T12:06:45;2.70;;;2.50;;
16906;SDS011;8570;52.380;4.654;2023-02-28T12:11:53;4.67;;;2.77;;
16906;SDS011;8570;52.380;4.654;2023-02-28T12:17:01;2.60;;;2.37;;
16906;SDS011;8570;52.380;4.654;2023-02-28T12:22:21;2.40;;;2.20;;
16906;SDS011;8570;52.380;4.654;2023-02-28T12:27:30;4.03;;;2.47;;
16906;SDS011;8570;52.380;4.654;2023-02-28T12:32:38;3.63;;;2.13;;
16906;SDS011;8570;52.380;4.654;2023-02-28T12:37:43;6.50;;;2.13;;
16906;SDS011;8570;52.380;4.654;2023-02-28T12:42:49;4.30;;;2.30;;
16906;SDS011;8570;52.380;4.654;2023-02-28T12:47:57;4.27;;;2.23;;
16906;SDS011;8570;52.380;4.654;2023-02-28T12:53:03;2.63;;;2.00;;
16906;SDS011;8570;52.380;4.654;2023-02-28T12:58:10;3.10;;;2.10;;
16906;SDS011;8570;52.380;4.654;2023-02-28T13:08:59;4.80;;;2.15;;
16906;SDS011;8570;52.380;4.654;2023-02-28T13:14:05;6.00;;;2.38;;
16906;SDS011;8570;52.380;4.654;2023-02-28T13:19:18;5.40;;;2.72;;
16906;SDS011;8570;52.380;4.654;2023-02-28T13:24:42;4.20;;;2.72;;
16906;SDS011;8570;52.380;4.654;2023-02-28T13:29:46;6.20;;;2.80;;
16906;SDS011;8570;52.380;4.654;2023-02-28T13:40:36;3.38;;;2.25;;
16906;SDS011;8570;52.380;4.654;2023-02-28T13:45:38;3.30;;;2.38;;
16906;SDS011;8570;52.380;4.654;2023-02-28T13:50:40;4.82;;;2.90;;
16906;SDS011;8570;52.380;4.654;2023-02-28T13:55:45;4.82;;;3.33;;
16906;SDS011;8570;52.380;4.654;2023-02-28T14:01:07;4.57;;;2.47;;
16906;SDS011;8570;52.380;4.654;2023-02-28T14:06:18;7.55;;;4.40;;
16906;SDS011;8570;52.380;4.654;2023-02-28T14:11:31;7.85;;;4.47;;
16906;SDS011;8570;52.380;4.654;2023-02-28T14:16:38;3.78;;;2.83;;
16906;SDS011;8570;52.380;4.654;2023-02-28T14:21:48;4.73;;;2.90;;
16906;SDS011;8570;52.380;4.654;2023-02-28T14:27:21;3.80;;;2.70;;
16906;SDS011;8570;52.380;4.654;2023-02-28T14:32:32;5.67;;;2.77;;
16906;SDS011;8570;52.380;4.654;2023-02-28T14:37:37;4.53;;;2.80;;
16906;SDS011;8570;52.380;4.654;2023-02-28T14:42:45;4.53;;;2.83;;
16906;SDS011;8570;52.380;4.654;2023-02-28T14:47:48;4.50;;;2.40;;
16906;SDS011;8570;52.380;4.654;2023-02-28T14:52:52;9.67;;;3.70;;
16906;SDS011;8570;52.380;4.654;2023-02-28T14:57:57;11.97;;;5.30;;
16906;SDS011;8570;52.380;4.654;2023-02-28T15:03:01;5.33;;;2.60;;
16906;SDS011;8570;52.380;4.654;2023-02-28T15:08:19;3.70;;;2.60;;
16906;SDS011;8570;52.380;4.654;2023-02-28T15:13:23;4.57;;;2.27;;
16906;SDS011;8570;52.380;4.654;2023-02-28T15:18:33;4.40;;;2.40;;
16906;SDS011;8570;52.380;4.654;2023-02-28T15:23:44;3.27;;;2.27;;
16906;SDS011;8570;52.380;4.654;2023-02-28T15:28:51;4.63;;;3.30;;
16906;SDS011;8570;52.380;4.654;2023-02-28T15:34:02;7.70;;;4.67;;
16906;SDS011;8570;52.380;4.654;2023-02-28T15:39:17;5.30;;;3.67;;
16906;SDS011;8570;52.380;4.654;2023-02-28T15:44:26;7.13;;;5.20;;
16906;SDS011;8570;52.380;4.654;2023-02-28T15:49:38;6.97;;;4.80;;
16906;SDS011;8570;52.380;4.654;2023-02-28T15:54:45;9.97;;;4.90;;
16906;SDS011;8570;52.380;4.654;2023-02-28T15:59:51;7.37;;;5.40;;
16906;SDS011;8570;52.380;4.654;2023-02-28T16:04:57;10.87;;;6.97;;
16906;SDS011;8570;52.380;4.654;2023-02-28T16:10:18;6.37;;;4.07;;
16906;SDS011;8570;52.380;4.654;2023-02-28T16:15:23;10.07;;;7.63;;
16906;SDS011;8570;52.380;4.654;2023-02-28T16:20:28;7.80;;;4.33;;
16906;SDS011;8570;52.380;4.654;2023-02-28T16:25:33;5.90;;;3.63;;
16906;SDS011;8570;52.380;4.654;2023-02-28T16:30:38;16.30;;;9.37;;
16906;SDS011;8570;52.380;4.654;2023-02-28T16:35:40;13.97;;;7.83;;
16906;SDS011;8570;52.380;4.654;2023-02-28T16:40:41;15.63;;;9.40;;
16906;SDS011;8570;52.380;4.654;2023-02-28T16:45:45;12.90;;;5.77;;
16906;SDS011;8570;52.380;4.654;2023-02-28T16:50:47;7.00;;;3.50;;
16906;SDS011;8570;52.380;4.654;2023-02-28T16:55:49;12.27;;;7.43;;
16906;SDS011;8570;52.380;4.654;2023-02-28T17:00:53;14.87;;;7.77;;
16906;SDS011;8570;52.380;4.654;2023-02-28T17:05:55;12.10;;;6.27;;
16906;SDS011;8570;52.380;4.654;2023-02-28T17:10:57;10.67;;;5.60;;
16906;SDS011;8570;52.380;4.654;2023-02-28T17:16:00;6.20;;;3.60;;
16906;SDS011;8570;52.380;4.654;2023-02-28T17:21:03;6.60;;;3.13;;
16906;SDS011;8570;52.380;4.654;2023-02-28T17:26:13;6.93;;;4.20;;
16906;SDS011;8570;52.380;4.654;2023-02-28T17:31:21;11.17;;;5.47;;
16906;SDS011;8570;52.380;4.654;2023-02-28T17:36:23;17.43;;;8.47;;
16906;SDS011;8570;52.380;4.654;2023-02-28T17:41:27;18.00;;;8.07;;
16906;SDS011;8570;52.380;4.654;2023-02-28T17:46:31;10.13;;;4.93;;
16906;SDS011;8570;52.380;4.654;2023-02-28T17:51:33;8.43;;;4.80;;
16906;SDS011;8570;52.380;4.654;2023-02-28T17:56:35;7.80;;;5.37;;
16906;SDS011;8570;52.380;4.654;2023-02-28T18:01:39;11.30;;;7.23;;
16906;SDS011;8570;52.380;4.654;2023-02-28T18:06:41;17.17;;;9.03;;
16906;SDS011;8570;52.380;4.654;2023-02-28T18:11:50;9.60;;;5.33;;
16906;SDS011;8570;52.380;4.654;2023-02-28T18:16:54;9.50;;;5.90;;
16906;SDS011;8570;52.380;4.654;2023-02-28T18:21:57;11.30;;;6.87;;
16906;SDS011;8570;52.380;4.654;2023-02-28T18:26:59;10.57;;;6.80;;
16906;SDS011;8570;52.380;4.654;2023-02-28T18:32:03;9.47;;;5.67;;
16906;SDS011;8570;52.380;4.654;2023-02-28T18:37:05;8.70;;;5.80;;
16906;SDS011;8570;52.380;4.654;2023-02-28T18:42:06;9.50;;;6.40;;
16906;SDS011;8570;52.380;4.654;2023-02-28T18:47:10;10.17;;;6.67;;
16906;SDS011;8570;52.380;4.654;2023-02-28T18:52:12;9.23;;;6.77;;
16906;SDS011;8570;52.380;4.654;2023-02-28T18:57:14;8.93;;;7.07;;
16906;SDS011;8570;52.380;4.654;2023-02-28T19:02:17;14.40;;;8.03;;
16906;SDS011;8570;52.380;4.654;2023-02-28T19:07:19;13.30;;;6.93;;
16906;SDS011;8570;52.380;4.654;2023-02-28T19:12:21;9.33;;;7.50;;
16906;SDS011;8570;52.380;4.654;2023-02-28T19:17:24;12.23;;;9.27;;
16906;SDS011;8570;52.380;4.654;2023-02-28T19:22:26;12.97;;;9.30;;
16906;SDS011;8570;52.380;4.654;2023-02-28T19:27:28;11.33;;;6.87;;
16906;SDS011;8570;52.380;4.654;2023-02-28T19:32:31;7.37;;;5.70;;
16906;SDS011;8570;52.380;4.654;2023-02-28T19:37:36;8.93;;;5.60;;
16906;SDS011;8570;52.380;4.654;2023-02-28T19:42:38;9.33;;;5.23;;
16906;SDS011;8570;52.380;4.654;2023-02-28T19:47:41;8.63;;;5.73;;
16906;SDS011;8570;52.380;4.654;2023-02-28T19:52:43;11.40;;;6.70;;
16906;SDS011;8570;52.380;4.654;2023-02-28T19:57:45;8.97;;;6.63;;
16906;SDS011;8570;52.380;4.654;2023-02-28T20:02:48;9.43;;;7.83;;
16906;SDS011;8570;52.380;4.654;2023-02-28T20:07:50;11.03;;;7.10;;
16906;SDS011;8570;52.380;4.654;2023-02-28T20:12:52;10.77;;;8.83;;
16906;SDS011;8570;52.380;4.654;2023-02-28T20:17:55;14.23;;;10.17;;
16906;SDS011;8570;52.380;4.654;2023-02-28T20:22:58;11.33;;;8.40;;
16906;SDS011;8570;52.380;4.654;2023-02-28T20:28:00;10.53;;;7.73;;
16906;SDS011;8570;52.380;4.654;2023-02-28T20:33:03;14.00;;;10.00;;
16906;SDS011;8570;52.380;4.654;2023-02-28T20:38:05;19.07;;;11.87;;
16906;SDS011;8570;52.380;4.654;2023-02-28T20:43:07;17.67;;;11.67;;
16906;SDS011;8570;52.380;4.654;2023-02-28T20:48:10;16.50;;;10.93;;
16906;SDS011;8570;52.380;4.654;2023-02-28T20:53:12;13.43;;;8.80;;
16906;SDS011;8570;52.380;4.654;2023-02-28T20:58:14;12.33;;;7.53;;
16906;SDS011;8570;52.380;4.654;2023-02-28T21:03:18;10.60;;;8.07;;
16906;SDS011;8570;52.380;4.654;2023-02-28T21:08:21;15.77;;;9.17;;
16906;SDS011;8570;52.380;4.654;2023-02-28T21:13:23;9.83;;;7.83;;
16906;SDS011;8570;52.380;4.654;2023-02-28T21:18:27;9.80;;;7.50;;
16906;SDS011;8570;52.380;4.654;2023-02-28T21:23:29;8.70;;;6.63;;
16906;SDS011;8570;52.380;4.654;2023-02-28T21:28:31;9.57;;;7.07;;
16906;SDS011;8570;52.380;4.654;2023-02-28T21:33:34;12.53;;;7.50;;
16906;SDS011;8570;52.380;4.654;2023-02-28T21:38:37;9.17;;;7.23;;
16906;SDS011;8570;52.380;4.654;2023-02-28T21:43:39;11.77;;;8.03;;
16906;SDS011;8570;52.380;4.654;2023-02-28T21:48:43;11.87;;;7.90;;
16906;SDS011;8570;52.380;4.654;2023-02-28T21:53:48;10.23;;;8.40;;
16906;SDS011;8570;52.380;4.654;2023-02-28T21:58:50;10.00;;;7.57;;
16906;SDS011;8570;52.380;4.654;2023-02-28T22:04:00;10.20;;;8.17;;
16906;SDS011;8570;52.380;4.654;2023-02-28T22:09:04;13.50;;;9.13;;
16906;SDS011;8570;52.380;4.654;2023-02-28T22:14:08;14.40;;;10.20;;
16906;SDS011;8570;52.380;4.654;2023-02-28T22:19:11;13.97;;;9.63;;
16906;SDS011;8570;52.380;4.654;2023-02-28T22:24:16;14.73;;;9.70;;
16906;SDS011;8570;52.380;4.654;2023-02-28T22:29:22;14.63;;;9.57;;
16906;SDS011;8570;52.380;4.654;2023-02-28T22:34:25;11.20;;;7.77;;
16906;SDS011;8570;52.380;4.654;2023-02-28T22:39:27;11.73;;;7.93;;
16906;SDS011;8570;52.380;4.654;2023-02-28T22:44:29;9.53;;;7.00;;
16906;SDS011;8570;52.380;4.654;2023-02-28T22:49:32;10.73;;;7.60;;
16906;SDS011;8570;52.380;4.654;2023-02-28T22:54:34;9.97;;;7.20;;
16906;SDS011;8570;52.380;4.654;2023-02-28T22:59:36;14.23;;;8.73;;
16906;SDS011;8570;52.380;4.654;2023-02-28T23:04:39;13.43;;;9.57;;
16906;SDS011;8570;52.380;4.654;2023-02-28T23:09:41;11.73;;;8.37;;
16906;SDS011;8570;52.380;4.654;2023-02-28T23:14:43;13.00;;;7.97;;
16906;SDS011;8570;52.380;4.654;2023-02-28T23:19:46;11.60;;;7.57;;
16906;SDS011;8570;52.380;4.654;2023-02-28T23:24:48;10.87;;;7.87;;
16906;SDS011;8570;52.380;4.654;2023-02-28T23:29:52;13.67;;;8.77;;
16906;SDS011;8570;52.380;4.654;2023-02-28T23:34:55;12.00;;;8.67;;
16906;SDS011;8570;52.380;4.654;2023-02-28T23:39:57;11.73;;;8.53;;
16906;SDS011;8570;52.380;4.654;2023-02-28T23:44:59;12.60;;;8.53;;
16906;SDS011;8570;52.380;4.654;2023-02-28T23:50:03;12.73;;;9.33;;
16906;SDS011;8570;52.380;4.654;2023-02-28T23:55:05;18.90;;;10.30;;
